createdAt,value
2022-10-22T00:00:14.329Z,8.70
2022-10-22T00:02:19.952Z,8.73
2022-10-22T00:04:22.227Z,7.83
2022-10-22T00:06:24.441Z,7.93
2022-10-22T00:08:26.659Z,8.17
2022-10-22T00:10:29.234Z,8.93
2022-10-22T00:12:31.378Z,9.33
2022-10-22T00:14:33.530Z,9.53
2022-10-22T00:16:35.690Z,8.80
2022-10-22T00:18:38.111Z,10.10
2022-10-22T00:20:40.340Z,9.37
2022-10-22T00:22:42.466Z,8.80
2022-10-22T00:24:44.567Z,9.00
2022-10-22T00:26:47.115Z,7.97
2022-10-22T00:28:49.176Z,7.50
2022-10-22T00:30:58.556Z,7.90
2022-10-22T00:33:00.739Z,7.73
2022-10-22T00:35:03.253Z,7.87
2022-10-22T00:37:05.404Z,8.63
2022-10-22T00:39:07.479Z,7.07
2022-10-22T00:41:09.664Z,7.67
2022-10-22T00:43:16.646Z,6.70
2022-10-22T00:45:21.971Z,7.37
2022-10-22T00:47:24.511Z,7.07
2022-10-22T00:49:26.644Z,7.30
2022-10-22T00:51:30.658Z,7.20
2022-10-22T00:53:35.993Z,7.50
2022-10-22T00:55:38.440Z,7.70
2022-10-22T00:57:40.714Z,7.63
2022-10-22T00:59:42.874Z,7.00
2022-10-22T01:01:45.326Z,8.40
2022-10-22T01:03:47.901Z,8.30
2022-10-22T01:05:57.791Z,8.63
2022-10-22T01:08:00.065Z,8.40
2022-10-22T01:10:29.548Z,9.80
2022-10-22T01:12:40.239Z,9.43
2022-10-22T01:14:58.919Z,10.13
2022-10-22T01:17:48.391Z,9.07
2022-10-22T01:20:03.240Z,10.33
2022-10-22T01:22:42.617Z,10.00
2022-10-22T01:24:57.653Z,11.20
2022-10-22T01:27:27.019Z,9.50
2022-10-22T01:29:37.736Z,11.53
2022-10-22T01:31:44.497Z,10.80
2022-10-22T01:33:47.105Z,10.90
2022-10-22T01:35:49.705Z,10.73
2022-10-22T01:37:58.148Z,11.20
2022-10-22T01:40:01.350Z,10.03
2022-10-22T01:42:03.713Z,12.00
2022-10-22T01:44:05.860Z,11.00
2022-10-22T01:46:10.431Z,10.67
2022-10-22T01:48:43.669Z,12.00
2022-10-22T01:50:57.977Z,11.07
2022-10-22T01:53:25.078Z,11.20
2022-10-22T01:55:33.770Z,11.50
2022-10-22T01:57:35.804Z,12.47
2022-10-22T01:59:56.555Z,12.37
2022-10-22T02:02:10.541Z,11.30
2022-10-22T02:04:18.562Z,12.20
2022-10-22T02:06:22.675Z,12.77
2022-10-22T02:08:28.033Z,12.87
2022-10-22T02:10:30.368Z,11.40
2022-10-22T02:12:32.999Z,11.77
2022-10-22T02:14:38.304Z,12.27
2022-10-22T02:16:43.343Z,10.57
2022-10-22T02:18:47.062Z,11.60
2022-10-22T02:20:49.992Z,11.67
2022-10-22T02:22:52.601Z,12.60
2022-10-22T02:24:55.234Z,12.40
2022-10-22T02:27:15.895Z,12.10
2022-10-22T02:29:29.724Z,11.80
2022-10-22T02:31:34.626Z,11.30
2022-10-22T02:33:39.853Z,12.53
2022-10-22T02:35:42.845Z,12.57
2022-10-22T02:37:45.123Z,13.20
2022-10-22T02:39:47.396Z,14.10
2022-10-22T02:41:49.759Z,14.90
2022-10-22T02:43:55.201Z,16.63
2022-10-22T02:45:57.521Z,14.97
2022-10-22T02:47:59.711Z,15.20
2022-10-22T02:50:03.571Z,14.77
2022-10-22T02:52:06.612Z,14.83
2022-10-22T02:54:08.739Z,14.10
2022-10-22T02:56:10.951Z,12.73
2022-10-22T02:58:14.001Z,14.37
2022-10-22T03:00:16.403Z,13.40
2022-10-22T03:02:18.521Z,14.33
2022-10-22T03:04:20.616Z,14.40
2022-10-22T03:06:22.878Z,13.37
2022-10-22T03:08:25.172Z,14.83
2022-10-22T03:10:27.295Z,13.00
2022-10-22T03:12:29.479Z,12.43
2022-10-22T03:14:31.564Z,13.57
2022-10-22T03:16:33.643Z,15.30
2022-10-22T03:18:35.891Z,14.17
2022-10-22T03:20:38.020Z,13.97
2022-10-22T03:22:41.430Z,14.57
2022-10-22T03:24:45.752Z,14.03
2022-10-22T03:26:50.397Z,13.97
2022-10-22T03:28:52.569Z,12.70
2022-10-22T03:30:54.663Z,13.60
2022-10-22T03:32:57.069Z,14.83
2022-10-22T03:37:02.417Z,12.87
2022-10-22T03:39:05.397Z,14.47
2022-10-22T03:41:07.790Z,13.80
2022-10-22T03:43:11.158Z,15.00
2022-10-22T03:45:13.322Z,14.60
2022-10-22T03:47:15.439Z,13.40
2022-10-22T03:49:17.615Z,13.10
2022-10-22T03:51:19.787Z,13.07
2022-10-22T03:53:22.029Z,13.87
2022-10-22T03:55:24.641Z,13.73
2022-10-22T03:57:26.807Z,15.20
2022-10-22T03:59:28.912Z,13.70
2022-10-22T04:01:31.517Z,15.37
2022-10-22T04:03:34.283Z,12.67
2022-10-22T04:05:36.377Z,14.13
2022-10-22T04:07:38.759Z,14.37
2022-10-22T04:09:41.103Z,13.70
2022-10-22T04:11:43.193Z,14.57
2022-10-22T04:13:45.394Z,14.57
2022-10-22T04:15:47.530Z,15.23
2022-10-22T04:17:49.919Z,16.73
2022-10-22T04:19:51.999Z,14.93
2022-10-22T04:21:54.077Z,15.53
2022-10-22T04:23:56.173Z,16.47
2022-10-22T04:25:59.559Z,15.13
2022-10-22T04:28:01.681Z,15.47
2022-10-22T04:30:05.461Z,14.33
2022-10-22T04:32:07.560Z,15.50
2022-10-22T04:34:09.622Z,14.73
2022-10-22T04:36:14.873Z,15.43
2022-10-22T04:38:17.065Z,14.17
2022-10-22T04:40:19.142Z,14.80
2022-10-22T04:42:21.293Z,14.63
2022-10-22T04:44:23.352Z,15.60
2022-10-22T04:46:27.980Z,14.63
2022-10-22T04:48:30.037Z,15.57
2022-10-22T04:50:32.138Z,14.97
2022-10-22T04:52:34.263Z,14.17
2022-10-22T04:54:36.293Z,14.00
2022-10-22T04:56:38.423Z,15.60
2022-10-22T04:58:40.519Z,14.97
2022-10-22T05:00:42.631Z,16.23
2022-10-22T05:02:49.207Z,16.20
2022-10-22T05:04:51.291Z,15.07
2022-10-22T05:06:53.396Z,14.40
2022-10-22T05:08:57.974Z,14.97
2022-10-22T05:11:00.152Z,14.20
2022-10-22T05:13:02.260Z,14.17
2022-10-22T05:15:04.651Z,13.47
2022-10-22T05:17:06.944Z,13.53
2022-10-22T05:19:09.220Z,14.93
2022-10-22T05:21:13.835Z,13.33
2022-10-22T05:23:15.992Z,12.17
2022-10-22T05:25:18.086Z,13.23
2022-10-22T05:27:20.199Z,12.57
2022-10-22T05:29:22.907Z,13.50
2022-10-22T05:31:25.176Z,13.53
2022-10-22T05:33:28.882Z,14.67
2022-10-22T05:35:31.017Z,13.10
2022-10-22T05:37:33.132Z,13.90
2022-10-22T05:39:36.965Z,13.57
2022-10-22T05:41:39.132Z,15.47
2022-10-22T05:43:41.276Z,12.20
2022-10-22T05:45:43.365Z,13.77
2022-10-22T05:47:45.461Z,12.80
2022-10-22T05:49:47.634Z,13.77
2022-10-22T05:51:49.798Z,15.70
2022-10-22T05:53:54.186Z,15.30
2022-10-22T05:55:56.392Z,14.50
2022-10-22T05:57:58.477Z,13.50
2022-10-22T06:00:00.604Z,14.67
2022-10-22T06:02:02.701Z,13.83
2022-10-22T06:04:06.995Z,14.90
2022-10-22T06:06:30.309Z,15.03
2022-10-22T06:08:32.617Z,15.83
2022-10-22T06:10:34.797Z,14.00
2022-10-22T06:12:36.876Z,13.70
2022-10-22T06:14:39.026Z,14.70
2022-10-22T06:16:41.441Z,12.60
2022-10-22T06:18:43.649Z,15.50
2022-10-22T06:20:47.608Z,13.83
2022-10-22T06:22:49.780Z,14.77
2022-10-22T06:24:52.264Z,16.17
2022-10-22T06:26:54.384Z,14.73
2022-10-22T06:28:57.165Z,14.40
2022-10-22T06:31:00.665Z,14.70
2022-10-22T06:33:02.736Z,15.30
2022-10-22T06:35:05.056Z,16.10
2022-10-22T06:37:07.106Z,15.60
2022-10-22T06:39:11.988Z,14.00
2022-10-22T06:41:15.878Z,15.23
2022-10-22T06:43:18.001Z,14.93
2022-10-22T06:45:20.107Z,15.50
2022-10-22T06:47:22.258Z,15.10
2022-10-22T06:49:24.559Z,15.23
2022-10-22T06:51:27.761Z,14.30
2022-10-22T06:53:30.411Z,14.43
2022-10-22T06:55:32.493Z,15.10
2022-10-22T06:57:34.692Z,14.13
2022-10-22T06:59:36.987Z,14.67
2022-10-22T07:01:39.478Z,13.63
2022-10-22T07:03:42.620Z,15.00
2022-10-22T07:05:45.141Z,14.30
2022-10-22T07:07:47.277Z,14.13
2022-10-22T07:09:51.388Z,16.00
2022-10-22T07:11:53.896Z,14.67
2022-10-22T07:13:59.543Z,15.33
2022-10-22T07:16:01.885Z,15.50
2022-10-22T07:18:04.783Z,14.67
2022-10-22T07:20:07.370Z,15.53
2022-10-22T07:22:09.462Z,15.43
2022-10-22T07:24:11.650Z,14.23
2022-10-22T07:26:15.423Z,15.03
2022-10-22T07:28:17.544Z,18.60
2022-10-22T07:30:19.665Z,18.33
2022-10-22T07:32:23.782Z,17.07
2022-10-22T07:34:31.231Z,18.30
2022-10-22T07:36:33.606Z,17.37
2022-10-22T07:38:36.335Z,19.83
2022-10-22T07:40:38.531Z,19.10
2022-10-22T07:42:40.642Z,19.00
2022-10-22T07:44:42.756Z,18.73
2022-10-22T07:46:48.124Z,15.77
2022-10-22T07:48:51.401Z,16.27
2022-10-22T07:50:53.574Z,17.30
2022-10-22T07:52:57.559Z,15.47
2022-10-22T07:55:00.568Z,16.07
2022-10-22T07:57:02.695Z,16.63
2022-10-22T07:59:04.946Z,15.00
2022-10-22T08:01:07.330Z,14.90
2022-10-22T08:03:11.783Z,13.70
2022-10-22T08:05:13.900Z,13.60
2022-10-22T08:07:16.172Z,13.17
2022-10-22T08:09:18.316Z,13.60
2022-10-22T08:11:20.374Z,12.70
2022-10-22T08:13:23.427Z,13.20
2022-10-22T08:15:26.530Z,12.77
2022-10-22T08:17:28.761Z,13.40
2022-10-22T08:19:32.508Z,13.83
2022-10-22T08:21:34.612Z,14.07
2022-10-22T08:23:36.789Z,14.20
2022-10-22T08:25:38.892Z,13.47
2022-10-22T08:27:41.161Z,15.50
2022-10-22T08:29:43.504Z,14.27
2022-10-22T08:31:45.616Z,14.10
2022-10-22T08:33:47.738Z,13.50
2022-10-22T08:35:50.982Z,12.57
2022-10-22T08:37:53.089Z,11.80
2022-10-22T08:39:55.291Z,13.90
2022-10-22T08:42:09.448Z,13.60
2022-10-22T08:44:23.852Z,12.00
2022-10-22T08:46:43.677Z,12.97
2022-10-22T08:48:46.279Z,10.20
2022-10-22T08:50:51.023Z,11.40
2022-10-22T08:52:56.799Z,10.30
2022-10-22T08:55:00.234Z,10.77
2022-10-22T08:57:09.013Z,10.27
2022-10-22T08:59:34.565Z,10.67
2022-10-22T09:01:42.279Z,10.43
2022-10-22T09:03:55.357Z,11.00
2022-10-22T09:06:12.820Z,9.63
2022-10-22T09:08:16.678Z,9.37
2022-10-22T09:10:21.314Z,9.70
2022-10-22T09:12:24.978Z,8.90
2022-10-22T09:14:27.389Z,9.80
2022-10-22T09:16:48.002Z,9.97
2022-10-22T09:19:20.514Z,10.47
2022-10-22T09:21:52.552Z,10.10
2022-10-22T09:24:00.632Z,10.07
2022-10-22T09:26:03.010Z,11.67
2022-10-22T09:28:05.691Z,10.90
2022-10-22T09:30:14.346Z,11.10
2022-10-22T09:32:17.069Z,10.00
2022-10-22T09:34:22.800Z,9.97
2022-10-22T09:36:25.110Z,9.97
2022-10-22T09:38:30.787Z,9.80
2022-10-22T09:40:46.123Z,10.40
2022-10-22T09:42:48.707Z,12.23
2022-10-22T09:44:55.706Z,9.40
2022-10-22T09:46:57.796Z,7.20
2022-10-22T09:49:26.385Z,7.60
2022-10-22T09:51:59.827Z,7.33
2022-10-22T09:54:03.447Z,6.33
2022-10-22T09:56:17.115Z,6.30
2022-10-22T09:58:20.304Z,6.33
2022-10-22T10:00:25.079Z,5.80
2022-10-22T10:02:43.731Z,5.60
2022-10-22T10:04:54.283Z,5.13
2022-10-22T10:06:56.654Z,4.97
2022-10-22T10:09:02.751Z,4.83
2022-10-22T10:11:13.338Z,4.80
2022-10-22T10:13:31.141Z,5.10
2022-10-22T10:15:39.803Z,5.30
2022-10-22T10:18:01.228Z,4.93
2022-10-22T10:20:25.271Z,5.00
2022-10-22T10:22:33.392Z,4.50
2022-10-22T10:24:55.009Z,4.47
2022-10-22T10:27:05.876Z,4.70
2022-10-22T10:29:45.067Z,5.17
2022-10-22T10:32:03.332Z,5.33
2022-10-22T10:34:23.632Z,4.67
2022-10-22T10:36:45.965Z,4.57
2022-10-22T10:38:58.134Z,4.57
2022-10-22T10:41:17.558Z,5.00
2022-10-22T10:43:40.873Z,5.37
2022-10-22T10:46:10.368Z,4.53
2022-10-22T10:48:22.230Z,4.57
2022-10-22T10:51:00.022Z,4.77
2022-10-22T10:53:28.086Z,5.07
2022-10-22T10:55:36.474Z,5.17
2022-10-22T10:57:56.932Z,5.33
2022-10-22T11:00:04.557Z,3.97
2022-10-22T11:02:34.609Z,4.47
2022-10-22T11:04:48.120Z,4.73
2022-10-22T11:06:54.532Z,5.10
2022-10-22T11:08:59.712Z,4.83
2022-10-22T11:11:06.693Z,4.50
2022-10-22T11:13:17.070Z,5.00
2022-10-22T11:15:27.060Z,5.30
2022-10-22T11:17:44.612Z,5.00
2022-10-22T11:20:00.252Z,5.50
2022-10-22T11:22:11.853Z,4.43
2022-10-22T11:24:22.048Z,4.37
2022-10-22T11:26:24.094Z,5.20
2022-10-22T11:28:42.540Z,5.47
2022-10-22T11:30:46.390Z,4.93
2022-10-22T11:32:57.383Z,5.03
2022-10-22T11:35:02.286Z,4.70
2022-10-22T11:37:05.281Z,4.57
2022-10-22T11:39:07.416Z,4.53
2022-10-22T11:41:30.714Z,4.23
2022-10-22T11:43:55.108Z,4.80
2022-10-22T11:46:02.879Z,5.20
2022-10-22T11:48:11.120Z,4.07
2022-10-22T11:50:40.400Z,4.30
2022-10-22T11:52:53.660Z,4.50
2022-10-22T11:55:02.538Z,4.13
2022-10-22T11:57:16.771Z,4.50
2022-10-22T11:59:39.715Z,3.90
2022-10-22T12:01:42.886Z,3.70
2022-10-22T12:03:48.896Z,4.63
2022-10-22T12:06:12.055Z,3.67
2022-10-22T12:08:25.270Z,2.97
2022-10-22T12:10:30.552Z,2.97
2022-10-22T12:12:36.483Z,3.23
2022-10-22T12:14:52.328Z,2.30
2022-10-22T12:16:58.745Z,3.67
2022-10-22T12:19:05.944Z,4.13
2022-10-22T12:21:13.000Z,4.20
2022-10-22T12:23:15.248Z,3.33
2022-10-22T12:25:35.518Z,3.80
2022-10-22T12:27:40.192Z,3.37
2022-10-22T12:29:42.517Z,4.23
2022-10-22T12:31:46.166Z,3.60
2022-10-22T12:33:49.306Z,3.83
2022-10-22T12:35:54.051Z,3.83
2022-10-22T12:37:58.240Z,4.07
2022-10-22T12:40:00.953Z,3.60
2022-10-22T12:42:05.284Z,3.87
2022-10-22T12:44:07.195Z,4.13
2022-10-22T12:46:13.883Z,3.00
2022-10-22T12:48:19.305Z,3.30
2022-10-22T12:50:30.815Z,3.60
2022-10-22T12:52:32.903Z,3.60
2022-10-22T12:54:35.579Z,3.10
2022-10-22T12:56:38.142Z,3.47
2022-10-22T12:58:44.236Z,3.87
2022-10-22T13:00:47.759Z,3.60
2022-10-22T13:02:49.888Z,3.20
2022-10-22T13:05:11.695Z,3.07
2022-10-22T13:07:16.960Z,3.03
2022-10-22T13:09:27.056Z,3.90
2022-10-22T13:11:53.226Z,3.10
2022-10-22T13:14:05.579Z,3.30
2022-10-22T13:16:24.750Z,2.90
2022-10-22T13:18:33.417Z,3.17
2022-10-22T13:20:37.494Z,3.00
2022-10-22T13:22:41.675Z,2.93
2022-10-22T13:24:50.186Z,2.90
2022-10-22T13:26:54.491Z,2.70
2022-10-22T13:28:57.489Z,2.67
2022-10-22T13:31:02.240Z,2.67
2022-10-22T13:33:06.528Z,2.77
2022-10-22T13:35:12.974Z,2.43
2022-10-22T13:37:14.984Z,2.20
2022-10-22T13:39:22.038Z,2.27
2022-10-22T13:41:29.084Z,2.70
2022-10-22T13:43:31.160Z,2.43
2022-10-22T13:45:33.157Z,2.33
2022-10-22T13:47:35.213Z,2.70
2022-10-22T13:49:37.332Z,2.00
2022-10-22T13:51:39.359Z,2.30
2022-10-22T13:53:41.399Z,2.23
2022-10-22T13:55:45.201Z,2.00
2022-10-22T13:57:48.001Z,2.13
2022-10-22T13:59:49.984Z,2.30
2022-10-22T14:01:52.287Z,1.97
2022-10-22T14:03:59.325Z,2.07
2022-10-22T14:06:01.650Z,2.00
2022-10-22T14:08:04.115Z,2.10
2022-10-22T14:10:22.665Z,2.13
2022-10-22T14:12:25.178Z,2.63
2022-10-22T14:14:27.247Z,1.70
2022-10-22T14:16:31.295Z,2.27
2022-10-22T14:18:34.003Z,2.00
2022-10-22T14:20:37.315Z,2.10
2022-10-22T14:22:39.289Z,2.13
2022-10-22T14:24:41.234Z,2.03
2022-10-22T14:26:43.234Z,2.00
2022-10-22T14:29:08.038Z,1.73
2022-10-22T14:31:09.747Z,2.30
2022-10-22T14:33:14.560Z,1.63
2022-10-22T14:35:18.506Z,1.80
2022-10-22T14:37:20.882Z,2.03
2022-10-22T14:39:22.901Z,2.00
2022-10-22T14:41:25.902Z,2.43
2022-10-22T14:43:31.031Z,2.20
2022-10-22T14:45:33.124Z,2.47
2022-10-22T14:47:35.113Z,3.10
2022-10-22T14:49:37.114Z,3.30
2022-10-22T14:51:39.104Z,2.27
2022-10-22T14:53:41.478Z,2.37
2022-10-22T14:55:47.405Z,2.40
2022-10-22T14:57:49.481Z,2.40
2022-10-22T14:59:54.885Z,2.80
2022-10-22T15:01:56.946Z,1.87
2022-10-22T15:03:58.872Z,3.07
2022-10-22T15:06:01.049Z,3.30
2022-10-22T15:08:03.281Z,3.27
2022-10-22T15:10:06.512Z,2.97
2022-10-22T15:12:08.471Z,2.57
2022-10-22T15:14:10.622Z,2.60
2022-10-22T15:16:13.514Z,2.80
2022-10-22T15:18:15.610Z,2.50
2022-10-22T15:20:17.622Z,3.57
2022-10-22T15:22:19.795Z,3.20
2022-10-22T15:24:21.888Z,2.77
2022-10-22T15:26:23.858Z,3.40
2022-10-22T15:28:26.061Z,2.90
2022-10-22T15:30:28.061Z,2.83
2022-10-22T15:32:30.076Z,3.10
2022-10-22T15:34:35.640Z,3.00
2022-10-22T15:36:37.605Z,2.97
2022-10-22T15:38:40.208Z,3.30
2022-10-22T15:40:42.239Z,3.50
2022-10-22T15:42:46.997Z,3.83
2022-10-22T15:44:49.224Z,3.13
2022-10-22T15:46:51.451Z,3.33
2022-10-22T15:48:53.644Z,3.73
2022-10-22T15:50:55.640Z,3.83
2022-10-22T15:52:57.928Z,3.73
2022-10-22T15:54:59.954Z,5.17
2022-10-22T15:57:03.546Z,4.20
2022-10-22T15:59:05.812Z,3.50
2022-10-22T16:01:11.200Z,4.37
2022-10-22T16:03:13.207Z,3.97
2022-10-22T16:05:15.188Z,3.50
2022-10-22T16:07:19.785Z,3.43
2022-10-22T16:09:26.884Z,4.30
2022-10-22T16:11:29.395Z,4.73
2022-10-22T16:13:31.547Z,6.37
2022-10-22T16:15:35.069Z,6.67
2022-10-22T16:17:37.156Z,6.20
2022-10-22T16:19:39.112Z,4.73
2022-10-22T16:21:41.775Z,4.50
2022-10-22T16:23:44.189Z,4.23
2022-10-22T16:25:46.767Z,5.00
2022-10-22T16:27:52.167Z,5.00
2022-10-22T16:29:54.952Z,6.70
2022-10-22T16:31:57.154Z,4.73
2022-10-22T16:33:59.147Z,5.43
2022-10-22T16:36:01.645Z,5.60
2022-10-22T16:38:03.664Z,5.80
2022-10-22T16:40:08.207Z,7.50
2022-10-22T16:42:10.484Z,6.20
2022-10-22T16:44:13.352Z,6.70
2022-10-22T16:46:19.983Z,7.60
2022-10-22T16:48:22.047Z,7.87
2022-10-22T16:50:24.039Z,9.90
2022-10-22T16:52:26.130Z,6.30
2022-10-22T16:54:28.299Z,8.00
2022-10-22T16:56:30.424Z,7.57
2022-10-22T16:58:33.201Z,7.80
2022-10-22T17:00:35.277Z,6.03
2022-10-22T17:02:37.509Z,6.53
2022-10-22T17:04:39.465Z,6.10
2022-10-22T17:06:41.461Z,6.43
2022-10-22T17:08:43.728Z,7.60
2022-10-22T17:10:45.769Z,18.07
2022-10-22T17:12:48.393Z,30.83
2022-10-22T17:14:51.133Z,30.10
2022-10-22T17:16:53.888Z,35.23
2022-10-22T17:18:56.371Z,36.73
2022-10-22T17:20:58.683Z,31.83
2022-10-22T17:23:00.656Z,25.60
2022-10-22T17:25:17.248Z,17.93
2022-10-22T17:27:19.213Z,14.70
2022-10-22T17:29:22.277Z,13.17
2022-10-22T17:31:25.808Z,9.50
2022-10-22T17:33:27.773Z,9.97
2022-10-22T17:35:29.778Z,7.77
2022-10-22T17:37:31.969Z,7.23
2022-10-22T17:39:33.905Z,8.03
2022-10-22T17:41:37.269Z,9.40
2022-10-22T17:43:39.255Z,10.13
2022-10-22T17:45:41.312Z,8.23
2022-10-22T17:47:43.532Z,8.53
2022-10-22T17:49:45.739Z,7.70
2022-10-22T17:51:48.115Z,8.50
2022-10-22T17:53:50.775Z,5.90
2022-10-22T17:56:02.441Z,6.50
2022-10-22T17:58:04.470Z,6.50
2022-10-22T18:00:06.941Z,7.30
2022-10-22T18:02:15.269Z,7.53
2022-10-22T18:04:18.983Z,9.77
2022-10-22T18:06:21.375Z,10.20
2022-10-22T18:08:26.115Z,10.70
2022-10-22T18:10:29.259Z,11.23
2022-10-22T18:12:31.213Z,12.17
2022-10-22T18:14:33.257Z,12.07
2022-10-22T18:16:35.527Z,10.33
2022-10-22T18:18:37.576Z,10.70
2022-10-22T18:20:39.594Z,10.37
2022-10-22T18:22:42.275Z,9.30
2022-10-22T18:24:44.240Z,7.90
2022-10-22T18:26:46.226Z,6.60
2022-10-22T18:28:51.273Z,6.57
2022-10-22T18:30:53.206Z,6.67
2022-10-22T18:32:55.184Z,5.97
2022-10-22T18:34:57.153Z,5.03
2022-10-22T18:36:59.100Z,5.00
2022-10-22T18:39:02.267Z,5.20
2022-10-22T18:41:08.798Z,4.90
2022-10-22T18:43:10.751Z,4.03
2022-10-22T18:45:12.709Z,4.83
2022-10-22T18:47:14.694Z,5.30
2022-10-22T18:49:18.489Z,5.33
2022-10-22T18:51:20.656Z,4.93
2022-10-22T18:53:22.605Z,5.67
2022-10-22T18:55:24.572Z,5.50
2022-10-22T18:57:26.608Z,6.27
2022-10-22T18:59:28.833Z,6.00
2022-10-22T19:01:30.880Z,5.47
2022-10-22T19:03:33.147Z,5.70
2022-10-22T19:05:35.137Z,4.90
2022-10-22T19:07:37.140Z,5.07
2022-10-22T19:09:40.409Z,5.63
2022-10-22T19:11:43.840Z,5.83
2022-10-22T19:13:45.764Z,5.40
2022-10-22T19:15:47.696Z,6.30
2022-10-22T19:17:49.654Z,5.90
2022-10-22T19:19:51.563Z,6.63
2022-10-22T19:21:56.462Z,6.50
2022-10-22T19:24:00.153Z,6.27
2022-10-22T19:26:12.315Z,6.60
2022-10-22T19:28:14.273Z,7.03
2022-10-22T19:30:17.375Z,7.70
2022-10-22T19:32:20.206Z,10.57
2022-10-22T19:34:22.363Z,9.00
2022-10-22T19:36:25.273Z,9.00
2022-10-22T19:38:29.723Z,8.87
2022-10-22T19:40:31.686Z,8.97
2022-10-22T19:42:33.974Z,9.87
2022-10-22T19:44:36.037Z,9.90
2022-10-22T19:46:38.229Z,10.87
2022-10-22T19:48:40.427Z,10.00
2022-10-22T19:50:42.662Z,8.97
2022-10-22T19:52:44.713Z,9.20
2022-10-22T19:54:46.825Z,9.97
2022-10-22T19:56:49.322Z,10.73
2022-10-22T19:58:51.387Z,10.47
2022-10-22T20:00:53.696Z,9.63
2022-10-22T20:02:55.694Z,11.50
2022-10-22T20:04:58.127Z,11.83
2022-10-22T20:07:00.318Z,11.20
2022-10-22T20:09:02.294Z,11.97
2022-10-22T20:11:06.989Z,12.50
2022-10-22T20:13:09.024Z,13.00
2022-10-22T20:15:10.988Z,11.40
2022-10-22T20:17:12.960Z,11.40
2022-10-22T20:19:16.276Z,11.97
2022-10-22T20:21:21.919Z,12.23
2022-10-22T20:23:23.851Z,12.17
2022-10-22T20:25:25.890Z,11.30
2022-10-22T20:27:27.902Z,10.93
2022-10-22T20:29:30.090Z,11.73
2022-10-22T20:31:33.126Z,11.87
2022-10-22T20:33:35.201Z,10.97
2022-10-22T20:35:37.657Z,11.40
2022-10-22T20:37:39.574Z,10.90
2022-10-22T20:39:41.499Z,10.20
2022-10-22T20:41:43.529Z,10.60
2022-10-22T20:43:46.610Z,9.60
2022-10-22T20:45:48.653Z,9.97
2022-10-22T20:47:52.006Z,9.70
2022-10-22T20:50:04.202Z,7.93
2022-10-22T20:52:06.232Z,9.70
2022-10-22T20:54:09.132Z,8.63
2022-10-22T20:56:11.642Z,7.70
2022-10-22T20:58:13.631Z,9.20
2022-10-22T21:00:15.887Z,8.33
2022-10-22T21:02:17.940Z,8.30
2022-10-22T21:04:21.164Z,8.57
2022-10-22T21:06:23.365Z,8.47
2022-10-22T21:08:25.447Z,8.37
2022-10-22T21:10:32.345Z,9.00
2022-10-22T21:12:34.781Z,8.90
2022-10-22T21:14:36.710Z,9.50
2022-10-22T21:16:45.676Z,8.63
2022-10-22T21:18:48.291Z,9.63
2022-10-22T21:20:50.207Z,9.90
2022-10-22T21:22:52.217Z,9.17
2022-10-22T21:24:54.155Z,9.37
2022-10-22T21:26:56.086Z,8.87
2022-10-22T21:28:58.040Z,10.00
2022-10-22T21:30:59.947Z,11.40
2022-10-22T21:33:01.899Z,10.73
2022-10-22T21:35:04.112Z,9.93
2022-10-22T21:37:06.051Z,9.40
2022-10-22T21:39:08.153Z,9.17
2022-10-22T21:41:12.630Z,8.50
2022-10-22T21:43:15.412Z,8.50
2022-10-22T21:45:19.953Z,9.33
2022-10-22T21:47:23.499Z,8.30
2022-10-22T21:49:25.481Z,8.77
2022-10-22T21:51:28.946Z,8.57
2022-10-22T21:53:30.862Z,7.90
2022-10-22T21:55:35.254Z,8.07
2022-10-22T21:57:37.205Z,8.20
2022-10-22T21:59:39.216Z,7.53
2022-10-22T22:01:41.252Z,7.07
2022-10-22T22:03:44.668Z,7.80
2022-10-22T22:05:46.599Z,7.70
2022-10-22T22:07:48.516Z,8.67
2022-10-22T22:09:50.847Z,8.13
2022-10-22T22:11:52.801Z,9.10
2022-10-22T22:13:55.779Z,8.13
2022-10-22T22:16:08.057Z,8.40
2022-10-22T22:18:10.049Z,7.63
2022-10-22T22:20:11.991Z,8.57
2022-10-22T22:22:13.956Z,9.00
2022-10-22T22:24:15.900Z,8.10
2022-10-22T22:26:25.237Z,8.90
2022-10-22T22:28:30.936Z,8.57
2022-10-22T22:30:32.911Z,9.20
2022-10-22T22:32:34.848Z,9.53
2022-10-22T22:34:37.653Z,9.40
2022-10-22T22:36:49.435Z,9.70
2022-10-22T22:38:55.375Z,9.63
2022-10-22T22:40:59.631Z,9.33
2022-10-22T22:43:01.756Z,9.13
2022-10-22T22:45:04.369Z,9.10
2022-10-22T22:47:06.479Z,9.43
2022-10-22T22:49:09.103Z,9.83
2022-10-22T22:51:11.496Z,7.97
2022-10-22T22:53:13.591Z,9.37
2022-10-22T22:55:15.940Z,9.03
2022-10-22T22:57:17.964Z,8.77
2022-10-22T22:59:20.083Z,8.43
2022-10-22T23:01:27.916Z,8.60
2022-10-22T23:03:30.035Z,7.73
2022-10-22T23:05:32.087Z,7.90
2022-10-22T23:07:34.377Z,8.23
2022-10-22T23:09:36.486Z,7.67
2022-10-22T23:11:38.777Z,8.83
2022-10-22T23:13:42.462Z,8.70
2022-10-22T23:15:44.561Z,10.23
2022-10-22T23:17:46.709Z,8.63
2022-10-22T23:19:48.796Z,7.53
2022-10-22T23:21:55.383Z,7.63
2022-10-22T23:23:59.877Z,8.53
2022-10-22T23:26:02.063Z,7.70
2022-10-22T23:28:04.251Z,8.30
2022-10-22T23:30:06.998Z,8.40
2022-10-22T23:32:13.235Z,7.70
2022-10-22T23:34:20.350Z,8.67
2022-10-22T23:36:22.451Z,8.33
2022-10-22T23:38:24.534Z,8.40
2022-10-22T23:40:26.594Z,8.27
2022-10-22T23:42:28.705Z,8.83
2022-10-22T23:44:30.835Z,8.67
2022-10-22T23:46:33.505Z,8.70
2022-10-22T23:48:36.098Z,8.50
2022-10-22T23:50:38.274Z,8.60
2022-10-22T23:52:40.569Z,8.30
2022-10-22T23:54:42.933Z,8.13
2022-10-22T23:56:45.032Z,7.20
2022-10-22T23:58:51.495Z,7.97
